Time;durP1;ratioP1;P1;durP2;ratioP2;P2;SDS_P1;SDS_P2;PMS_P1;PMS_P2;Temp;Humidity;BMP_temperature;BMP_pressure;BME280_temperature;BME280_humidity;BME280_pressure;Samples;Min_cycle;Max_cycle;Signal;HPM_P1;HPM_P2
2021/10/07 00:01:16;;;;;;;6.40;3.55;;;;;;;13.07;75.46;100790.22;4989703;28;105861;-65
2021/10/07 00:03:41;;;;;;;7.30;3.60;;;;;;;13.07;75.08;100791.06;4988929;28;106177;-64
2021/10/07 00:06:07;;;;;;;6.32;3.65;;;;;;;13.07;75.16;100796.41;4988973;28;105907;-64
2021/10/07 00:08:32;;;;;;;4.40;3.20;;;;;;;13.07;75.33;100791.06;4988732;28;105897;-65
2021/10/07 00:10:57;;;;;;;5.38;3.28;;;;;;;13.08;75.05;100797.25;4989581;28;105941;-64
2021/10/07 00:13:24;;;;;;;7.97;3.78;;;;;;;13.08;75.13;100800.78;4988797;28;106216;-65
2021/10/07 00:15:49;;;;;;;7.57;3.65;;;;;;;13.09;75.03;100802.41;4988395;28;105981;-64
2021/10/07 00:18:16;;;;;;;9.25;4.18;;;;;;;13.09;74.91;100794.38;4988606;28;106090;-64
2021/10/07 00:20:41;;;;;;;8.63;4.32;;;;;;;13.10;75.16;100797.91;4989707;28;105926;-64
2021/10/07 00:23:07;;;;;;;6.43;3.72;;;;;;;13.10;75.02;100798.75;4988615;28;106109;-64
2021/10/07 00:25:32;;;;;;;5.95;3.80;;;;;;;13.11;74.94;100791.53;4988355;28;105975;-62
2021/10/07 00:28:06;;;;;;;5.43;3.55;;;;;;;13.11;74.78;100791.53;4988165;28;106059;-64
2021/10/07 00:30:32;;;;;;;8.35;3.97;;;;;;;13.09;74.85;100789.03;4989043;28;105900;-64
2021/10/07 00:40:53;;;;;;;6.45;3.40;;;;;;;13.07;74.74;100793.75;4988847;28;106043;-64
2021/10/07 00:43:19;;;;;;;6.78;3.25;;;;;;;13.07;74.50;100799.09;4987905;28;106188;-65
2021/10/07 00:45:56;;;;;;;5.72;3.60;;;;;;;13.07;74.79;100801.78;4987782;28;106574;-62
2021/10/07 00:48:22;;;;;;;5.28;3.33;;;;;;;13.06;74.29;100794.75;4988032;28;106812;-63
2021/10/07 00:50:48;;;;;;;4.68;3.42;;;;;;;13.06;74.65;100801.94;4988419;28;105976;-61
2021/10/07 00:53:16;;;;;;;6.18;3.35;;;;;;;13.06;74.30;100793.91;4988061;28;106191;-62
2021/10/07 00:55:42;;;;;;;5.97;3.30;;;;;;;13.06;74.48;100793.91;4987723;28;105699;-64
2021/10/07 00:58:08;;;;;;;6.38;3.55;;;;;;;13.05;74.64;100793.06;4987521;28;106277;-65
2021/10/07 01:00:34;;;;;;;8.98;3.70;;;;;;;13.06;74.15;100799.28;4985408;28;105889;-65
2021/10/07 01:02:59;;;;;;;7.25;3.90;;;;;;;13.05;74.44;100801.09;4984712;28;105860;-64
2021/10/07 01:05:25;;;;;;;7.05;4.10;;;;;;;13.06;73.89;100797.41;4987441;28;106096;-64
2021/10/07 01:07:51;;;;;;;6.22;3.10;;;;;;;13.04;74.10;100794.91;4987420;28;105901;-64
2021/10/07 01:10:16;;;;;;;7.32;3.78;;;;;;;13.06;74.15;100793.91;4989961;28;105876;-64
2021/10/07 01:12:42;;;;;;;6.68;3.50;;;;;;;13.06;73.89;100791.25;4991360;28;106184;-64
2021/10/07 01:15:07;;;;;;;7.25;3.60;;;;;;;13.06;74.06;100794.75;4990565;28;105933;-62
2021/10/07 01:17:33;;;;;;;5.78;3.10;;;;;;;13.06;74.29;100794.75;4989569;28;106677;-64
2021/10/07 01:20:02;;;;;;;5.95;3.35;;;;;;;13.07;74.14;100796.41;4991960;28;106135;-64
2021/10/07 01:22:28;;;;;;;7.13;3.55;;;;;;;13.08;74.05;100798.09;4989380;28;106247;-64
2021/10/07 01:24:55;;;;;;;5.97;3.72;;;;;;;13.08;74.07;100792.75;4990806;28;106271;-65
2021/10/07 01:27:22;;;;;;;6.28;3.67;;;;;;;13.08;74.35;100798.09;4990556;28;106111;-63
2021/10/07 01:29:53;;;;;;;5.85;3.42;;;;;;;13.08;74.07;100803.44;4991319;28;106062;-62
2021/10/07 01:32:19;;;;;;;6.75;3.80;;;;;;;13.07;74.06;100796.41;4990931;28;106246;-65
2021/10/07 01:34:45;;;;;;;10.70;3.78;;;;;;;13.08;74.15;100811.47;4990549;28;106330;-64
2021/10/07 01:37:10;;;;;;;7.25;3.60;;;;;;;13.08;74.08;100806.13;4990684;28;106851;-64
2021/10/07 01:39:36;;;;;;;5.85;3.55;;;;;;;13.08;74.04;100803.44;4991288;28;106478;-64
2021/10/07 01:42:01;;;;;;;5.15;3.60;;;;;;;13.08;73.73;100815.97;4990997;28;105973;-65
2021/10/07 01:44:27;;;;;;;5.40;3.47;;;;;;;13.06;74.07;100810.78;4990658;28;105969;-64
2021/10/07 01:46:53;;;;;;;7.35;3.80;;;;;;;13.05;74.16;100819.81;4990552;28;105984;-65
2021/10/07 01:49:19;;;;;;;5.15;3.58;;;;;;;13.06;73.83;100826.84;4991173;28;105877;-64
2021/10/07 01:51:45;;;;;;;8.50;4.18;;;;;;;13.04;74.11;100819.00;4990457;28;106216;-65
2021/10/07 01:54:11;;;;;;;7.50;4.03;;;;;;;13.03;73.82;100816.50;4990379;28;106064;-64
2021/10/07 01:56:36;;;;;;;7.07;3.58;;;;;;;13.02;73.78;100820.97;4990268;28;106083;-63
2021/10/07 01:59:02;;;;;;;6.43;3.85;;;;;;;13.01;73.95;100822.00;4991420;28;105919;-64
2021/10/07 02:01:28;;;;;;;7.63;3.55;;;;;;;13.02;74.04;100825.50;4989950;28;106186;-63
2021/10/07 02:03:53;;;;;;;7.15;3.58;;;;;;;13.00;73.85;100825.69;4990155;28;106613;-64
2021/10/07 02:06:19;;;;;;;12.25;4.45;;;;;;;12.99;73.91;100832.03;4990123;28;106362;-62
2021/10/07 02:08:44;;;;;;;5.90;4.00;;;;;;;12.98;73.76;100829.53;4991287;28;105917;-63
2021/10/07 02:11:11;;;;;;;6.45;3.97;;;;;;;12.97;73.71;100835.88;4990402;28;106251;-63
2021/10/07 02:13:37;;;;;;;5.57;3.53;;;;;;;12.96;73.90;100839.59;4989734;28;106175;-63
2021/10/07 02:16:02;;;;;;;5.05;3.28;;;;;;;12.95;73.71;100840.56;4989990;28;105992;-63
2021/10/07 02:18:28;;;;;;;8.35;3.60;;;;;;;12.94;74.03;100839.72;4990942;28;106067;-64
2021/10/07 02:20:54;;;;;;;6.22;3.33;;;;;;;12.95;73.97;100843.25;4990193;28;106167;-65
2021/10/07 02:23:20;;;;;;;6.90;3.63;;;;;;;12.93;73.68;100842.56;4989295;28;105815;-65
2021/10/07 02:25:46;;;;;;;5.97;3.63;;;;;;;12.92;73.54;100846.28;4989752;28;106279;-65
2021/10/07 02:28:13;;;;;;;5.50;3.30;;;;;;;12.90;73.91;100841.06;4990406;28;105842;-64
2021/10/07 02:30:40;;;;;;;5.72;3.90;;;;;;;12.91;73.69;100844.59;4990062;28;106161;-64
2021/10/07 02:33:05;;;;;;;9.20;3.63;;;;;;;12.90;73.93;100848.28;4990079;28;105950;-64
2021/10/07 02:35:31;;;;;;;5.10;3.35;;;;;;;12.88;73.89;100847.63;4989447;28;105921;-64
2021/10/07 02:37:56;;;;;;;8.00;3.70;;;;;;;12.89;73.62;100852.78;4990535;28;105834;-64
2021/10/07 02:40:21;;;;;;;8.20;4.03;;;;;;;12.88;73.98;100858.31;4989825;28;105871;-64
2021/10/07 02:42:47;;;;;;;7.78;4.15;;;;;;;12.86;74.05;100859.31;4989523;28;105934;-65
2021/10/07 02:45:16;;;;;;;6.10;4.32;;;;;;;12.84;73.82;100855.97;4988799;28;106102;-65
2021/10/07 02:47:42;;;;;;;10.57;4.82;;;;;;;12.84;74.01;100857.81;4990223;28;106652;-64
2021/10/07 02:50:09;;;;;;;7.03;4.20;;;;;;;12.83;73.68;100859.63;4989376;28;106127;-64
2021/10/07 02:52:34;;;;;;;8.27;4.72;;;;;;;12.82;73.85;100857.13;4989305;28;105814;-63
2021/10/07 02:55:00;;;;;;;9.57;4.57;;;;;;;12.79;73.84;100852.94;4989277;28;105985;-64
2021/10/07 02:57:25;;;;;;;8.65;5.07;;;;;;;12.79;73.86;100862.81;4990358;28;105889;-64
2021/10/07 02:59:51;;;;;;;15.68;10.70;;;;;;;12.78;74.11;100863.81;4989548;28;106182;-65
2021/10/07 03:02:17;;;;;;;13.60;8.30;;;;;;;12.77;74.10;100865.66;4989006;28;106668;-65
2021/10/07 03:04:43;;;;;;;7.88;5.50;;;;;;;12.76;73.95;100866.66;4988850;28;106094;-64
2021/10/07 03:07:11;;;;;;;9.00;5.03;;;;;;;12.76;74.00;100868.50;4989695;28;106071;-64
2021/10/07 03:09:38;;;;;;;10.50;5.28;;;;;;;12.75;73.85;100873.00;4989301;28;105799;-65
2021/10/07 03:12:05;;;;;;;10.73;5.78;;;;;;;12.74;73.97;100879.38;4988774;28;106701;-64
2021/10/07 03:14:31;;;;;;;7.60;5.50;;;;;;;12.74;73.72;100884.72;4988545;28;106123;-64
2021/10/07 03:16:56;;;;;;;10.05;5.47;;;;;;;12.71;74.06;100885.03;4989547;28;106119;-65
2021/10/07 03:19:22;;;;;;;7.03;5.20;;;;;;;12.70;74.17;100883.38;4988948;28;106145;-63
2021/10/07 03:21:47;;;;;;;10.70;5.95;;;;;;;12.70;73.93;100886.06;4988580;28;106650;-64
2021/10/07 03:24:12;;;;;;;7.22;5.22;;;;;;;12.71;74.16;100887.69;4988367;28;106217;-65
2021/10/07 03:26:38;;;;;;;9.77;6.05;;;;;;;12.71;74.34;100885.03;4989269;28;105929;-65
2021/10/07 03:29:03;;;;;;;8.68;5.72;;;;;;;12.71;74.09;100887.69;4988489;28;105893;-64
2021/10/07 03:31:29;;;;;;;11.63;5.50;;;;;;;12.70;73.83;100892.22;4988023;28;106245;-64
2021/10/07 03:33:55;;;;;;;10.27;6.18;;;;;;;12.71;74.30;100898.41;4987766;28;105905;-64
2021/10/07 03:36:20;;;;;;;10.18;6.72;;;;;;;12.72;74.23;100896.59;4989526;28;106020;-65
2021/10/07 03:38:46;;;;;;;10.40;6.22;;;;;;;12.70;74.48;100894.91;4986086;28;106162;-64
2021/10/07 03:41:11;;;;;;;8.45;6.13;;;;;;;12.72;74.28;100902.75;4978655;28;105884;-64
2021/10/07 03:43:36;;;;;;;10.18;5.95;;;;;;;12.72;74.20;100897.41;4976741;28;107147;-64
2021/10/07 03:46:02;;;;;;;12.15;6.07;;;;;;;12.72;74.12;100894.72;4973918;28;106111;-64
2021/10/07 03:48:27;;;;;;;11.07;6.18;;;;;;;12.72;74.31;100900.06;4968499;28;106142;-64
2021/10/07 03:50:53;;;;;;;10.48;6.43;;;;;;;12.73;74.44;100898.25;4968637;28;105942;-65
2021/10/07 03:53:18;;;;;;;8.25;5.70;;;;;;;12.73;74.70;100908.94;4968057;28;106125;-64
2021/10/07 03:55:43;;;;;;;6.55;5.20;;;;;;;12.71;74.27;100917.09;4969175;28;106288;-64
2021/10/07 03:58:09;;;;;;;11.30;6.20;;;;;;;12.71;74.45;100914.44;4968328;28;106336;-65
2021/10/07 04:00:34;;;;;;;9.07;5.75;;;;;;;12.70;74.46;100913.63;4968132;28;106444;-65
2021/10/07 04:03:03;;;;;;;7.95;6.10;;;;;;;12.70;74.68;100915.47;4967926;28;106259;-66
2021/10/07 04:05:29;;;;;;;11.45;6.15;;;;;;;12.70;74.28;100918.13;4968948;28;106283;-64
2021/10/07 04:07:55;;;;;;;16.23;7.00;;;;;;;12.70;74.65;100920.81;4968807;28;106278;-64
2021/10/07 04:10:20;;;;;;;10.50;6.25;;;;;;;12.70;74.34;100923.47;4967606;28;105887;-64
2021/10/07 04:12:46;;;;;;;10.13;5.95;;;;;;;12.70;74.71;100926.97;4967119;28;105884;-64
2021/10/07 04:15:11;;;;;;;8.68;6.72;;;;;;;12.69;74.65;100932.50;4985183;28;105964;-64
2021/10/07 04:17:36;;;;;;;9.48;6.20;;;;;;;12.68;74.81;100931.66;5007036;28;106181;-64
2021/10/07 04:20:03;;;;;;;11.93;7.18;;;;;;;12.67;74.41;100939.84;5007518;28;105961;-64
2021/10/07 04:22:28;;;;;;;11.93;6.68;;;;;;;12.65;74.84;100931.16;5007457;28;106036;-64
2021/10/07 04:24:56;;;;;;;8.82;5.35;;;;;;;12.64;74.26;100935.69;5008769;28;105768;-64
2021/10/07 04:27:21;;;;;;;13.60;6.53;;;;;;;12.64;74.25;100933.00;5007368;28;106323;-63
2021/10/07 04:29:46;;;;;;;11.23;6.47;;;;;;;12.65;74.84;100936.50;5006744;28;106080;-64
2021/10/07 04:32:12;;;;;;;10.48;6.53;;;;;;;12.65;74.25;100934.66;5007762;28;105947;-64
2021/10/07 04:34:37;;;;;;;33.08;22.45;;;;;;;12.65;74.57;100936.50;5008709;28;106220;-64
2021/10/07 04:37:03;;;;;;;15.43;9.32;;;;;;;12.63;74.66;100938.50;5007873;28;106220;-64
2021/10/07 04:39:28;;;;;;;11.32;8.18;;;;;;;12.62;74.81;100942.19;5007599;28;107135;-63
2021/10/07 04:41:54;;;;;;;11.15;7.68;;;;;;;12.63;74.59;100938.50;5006984;28;106163;-64
2021/10/07 04:44:20;;;;;;;10.98;7.25;;;;;;;12.62;74.65;100947.53;5008289;28;106156;-64
2021/10/07 04:46:45;;;;;;;9.52;5.80;;;;;;;12.60;74.78;100945.03;5011098;28;106245;-63
2021/10/07 04:49:11;;;;;;;9.30;6.80;;;;;;;12.61;74.88;100949.34;5010983;28;105979;-64
2021/10/07 04:51:36;;;;;;;14.15;7.05;;;;;;;12.63;74.98;100951.84;5010209;28;106919;-64
2021/10/07 04:54:02;;;;;;;11.52;6.43;;;;;;;12.62;74.47;100956.38;5011680;28;105971;-64
2021/10/07 04:56:27;;;;;;;8.75;7.07;;;;;;;12.63;75.01;100962.53;4991131;28;106188;-64
2021/10/07 04:58:54;;;;;;;10.23;7.35;;;;;;;12.64;74.67;100957.06;4991333;28;107348;-63
2021/10/07 05:01:20;;;;;;;11.38;6.70;;;;;;;12.65;74.77;100964.06;4990736;28;106015;-63
2021/10/07 05:03:46;;;;;;;12.68;7.22;;;;;;;12.65;74.58;100964.06;4991314;28;106048;-63
2021/10/07 05:06:11;;;;;;;13.27;6.93;;;;;;;12.67;74.99;100966.56;4990928;28;105815;-64
2021/10/07 05:08:37;;;;;;;11.90;7.30;;;;;;;12.67;74.73;100966.56;4990764;28;106039;-64
2021/10/07 05:11:02;;;;;;;13.07;8.20;;;;;;;12.66;74.62;100964.91;4990668;28;105949;-63
2021/10/07 05:13:27;;;;;;;11.93;7.95;;;;;;;12.65;74.81;100964.06;4991241;28;106167;-64
2021/10/07 05:15:53;;;;;;;10.85;7.90;;;;;;;12.62;74.43;100960.91;4990766;28;106168;-64
2021/10/07 05:18:18;;;;;;;10.57;7.63;;;;;;;12.58;74.97;100963.06;4990171;28;106761;-63
2021/10/07 05:20:45;;;;;;;14.10;8.00;;;;;;;12.57;75.22;100965.91;4990729;28;105993;-63
2021/10/07 05:23:12;;;;;;;10.75;7.63;;;;;;;12.56;75.24;100970.41;4991017;28;106402;-64
2021/10/07 05:25:37;;;;;;;14.63;8.57;;;;;;;12.59;75.06;100969.22;4990595;28;106131;-63
2021/10/07 05:28:03;;;;;;;12.95;8.50;;;;;;;12.62;75.13;100966.25;4990140;28;106393;-63
2021/10/07 05:30:29;;;;;;;11.88;8.43;;;;;;;12.66;75.19;100970.25;4989773;28;106036;-63
2021/10/07 05:32:54;;;;;;;14.40;7.97;;;;;;;12.68;75.54;100973.59;4991145;28;106074;-63
2021/10/07 05:35:20;;;;;;;27.77;18.00;;;;;;;12.69;75.02;100970.75;4990610;28;105922;-63
2021/10/07 05:37:46;;;;;;;16.70;10.05;;;;;;;12.73;75.38;100973.94;4988872;28;106917;-63
2021/10/07 05:40:11;;;;;;;22.02;14.00;;;;;;;12.75;75.18;100979.94;4989707;28;106052;-63
2021/10/07 05:42:37;;;;;;;12.98;8.40;;;;;;;12.79;75.12;100985.81;4990958;28;105934;-67
2021/10/07 05:45:03;;;;;;;16.25;8.32;;;;;;;12.82;75.38;100993.50;4990368;28;106492;-66
2021/10/07 05:47:29;;;;;;;16.55;9.80;;;;;;;12.85;75.27;100991.34;4990459;28;105951;-65
2021/10/07 05:49:54;;;;;;;17.20;9.10;;;;;;;12.90;75.61;100998.03;4990070;28;106315;-64
2021/10/07 05:52:19;;;;;;;16.58;11.05;;;;;;;12.94;75.32;101000.19;4990812;28;105865;-63
2021/10/07 05:54:45;;;;;;;14.80;9.73;;;;;;;12.97;75.10;100997.19;4988467;28;106439;-63
2021/10/07 05:57:11;;;;;;;14.82;9.52;;;;;;;13.01;75.25;101000.34;4987736;28;105967;-63
2021/10/07 05:59:36;;;;;;;15.88;9.82;;;;;;;13.04;75.03;100995.53;4987857;28;106326;-63
2021/10/07 06:02:02;;;;;;;13.95;9.45;;;;;;;13.07;75.21;101001.53;4988299;28;106068;-63
2021/10/07 06:04:27;;;;;;;15.77;8.88;;;;;;;13.09;75.07;101007.56;4988013;28;107336;-63
2021/10/07 06:06:53;;;;;;;13.43;9.25;;;;;;;13.11;75.26;101014.41;4987662;28;105998;-63
2021/10/07 06:09:18;;;;;;;15.13;9.48;;;;;;;13.13;75.09;101015.06;4987703;28;106373;-62
2021/10/07 06:11:44;;;;;;;15.38;10.00;;;;;;;13.15;75.10;101023.78;4988591;28;106554;-64
2021/10/07 06:14:09;;;;;;;17.05;10.45;;;;;;;13.16;75.17;101022.78;4989616;28;106054;-62
2021/10/07 06:16:38;;;;;;;17.13;10.60;;;;;;;13.18;75.10;101023.44;4989338;28;106692;-62
2021/10/07 06:19:06;;;;;;;17.80;11.13;;;;;;;13.17;75.02;101027.13;4989551;28;106084;-62
2021/10/07 06:21:32;;;;;;;16.80;10.27;;;;;;;13.17;74.85;101027.13;4990260;28;105835;-62
2021/10/07 06:23:57;;;;;;;15.98;11.00;;;;;;;13.19;75.17;101030.47;4989463;28;106120;-63
2021/10/07 06:26:23;;;;;;;22.45;11.18;;;;;;;13.22;75.10;101029.31;4989496;28;106542;-63
2021/10/07 06:28:49;;;;;;;19.85;11.50;;;;;;;13.26;75.05;101029.78;4989233;28;106301;-63
2021/10/07 06:31:17;;;;;;;18.70;11.32;;;;;;;13.29;75.24;101034.81;4990184;28;105831;-63
2021/10/07 06:33:43;;;;;;;18.75;11.63;;;;;;;13.31;75.25;101032.81;4989478;28;106084;-62
2021/10/07 06:36:09;;;;;;;17.75;11.63;;;;;;;13.34;75.07;101032.47;4989173;28;106547;-63
2021/10/07 06:38:34;;;;;;;18.52;11.48;;;;;;;13.36;75.17;101036.69;4989152;28;106088;-62
2021/10/07 06:41:00;;;;;;;15.80;10.95;;;;;;;13.43;75.16;101036.84;4990205;28;106022;-63
2021/10/07 06:43:26;;;;;;;19.58;12.32;;;;;;;13.51;75.33;101038.69;4989140;28;106183;-63
2021/10/07 06:45:51;;;;;;;37.60;22.75;;;;;;;13.58;75.13;101034.31;4989219;28;105849;-63
2021/10/07 06:48:17;;;;;;;29.45;18.05;;;;;;;13.67;75.19;101033.31;4988951;28;105820;-63
2021/10/07 06:50:42;;;;;;;19.83;13.60;;;;;;;13.74;75.19;101037.97;4989936;28;106075;-63
2021/10/07 06:53:09;;;;;;;18.30;12.63;;;;;;;13.77;74.91;101041.16;4989604;28;106237;-62
2021/10/07 06:55:35;;;;;;;21.92;12.88;;;;;;;13.80;74.98;101048.84;4988667;28;106035;-62
2021/10/07 06:58:01;;;;;;;19.48;12.68;;;;;;;13.85;74.97;101046.50;4988787;28;106056;-63
2021/10/07 07:00:26;;;;;;;20.63;13.20;;;;;;;13.93;74.78;101042.97;4989423;28;106166;-63
2021/10/07 07:02:53;;;;;;;21.95;12.65;;;;;;;14.00;75.14;101043.13;4989048;28;105852;-63
2021/10/07 07:05:19;;;;;;;20.30;13.40;;;;;;;14.07;74.97;101048.63;4988566;28;106117;-63
2021/10/07 07:07:44;;;;;;;19.30;11.75;;;;;;;14.14;74.57;101055.78;4988021;28;106008;-62
2021/10/07 07:10:17;;;;;;;18.67;12.18;;;;;;;14.21;74.75;101048.75;4989219;28;106118;-63
2021/10/07 07:12:46;;;;;;;18.15;13.10;;;;;;;14.32;74.63;101057.41;4988837;28;105975;-62
2021/10/07 07:15:12;;;;;;;21.02;12.80;;;;;;;14.35;74.58;101057.06;4988350;28;105925;-62
2021/10/07 07:17:38;;;;;;;23.85;12.40;;;;;;;14.38;74.58;101056.72;4988509;28;105688;-63
2021/10/07 07:20:04;;;;;;;22.05;12.27;;;;;;;14.42;74.44;101055.38;4989185;28;105955;-62
2021/10/07 07:22:30;;;;;;;20.27;13.00;;;;;;;14.49;74.29;101064.38;4987995;28;106112;-62
2021/10/07 07:24:56;;;;;;;23.10;13.25;;;;;;;14.54;74.20;101069.19;4987289;28;106840;-61
2021/10/07 07:27:21;;;;;;;21.60;13.55;;;;;;;14.55;74.02;101063.66;4988607;28;105993;-62
2021/10/07 07:29:46;;;;;;;25.58;15.07;;;;;;;14.62;74.08;101071.00;4989476;28;105882;-62
2021/10/07 07:32:12;;;;;;;22.77;14.65;;;;;;;14.62;73.81;101073.69;4987947;28;106262;-63
2021/10/07 07:34:37;;;;;;;25.40;16.13;;;;;;;14.60;73.80;101073.88;4981408;28;106342;-63
2021/10/07 07:37:03;;;;;;;29.27;15.80;;;;;;;14.58;73.91;101078.56;4967820;28;106523;-63
2021/10/07 07:39:29;;;;;;;26.23;18.10;;;;;;;14.55;73.87;101078.91;4967674;28;105911;-63
2021/10/07 07:41:54;;;;;;;75.05;48.17;;;;;;;14.53;73.77;101083.63;4968397;28;106143;-63
2021/10/07 07:44:19;;;;;;;30.52;19.52;;;;;;;14.54;73.98;101088.81;4967534;28;107202;-62
2021/10/07 07:46:45;;;;;;;29.67;20.42;;;;;;;14.53;73.96;101091.69;4967822;28;105936;-64
2021/10/07 07:49:10;;;;;;;55.10;37.95;;;;;;;14.50;73.46;101092.00;4968715;28;105945;-62
2021/10/07 07:51:36;;;;;;;35.92;25.25;;;;;;;14.47;73.73;101093.19;4968242;28;106198;-62
2021/10/07 07:54:02;;;;;;;32.30;19.67;;;;;;;14.43;73.68;101086.50;4967797;28;106340;-62
2021/10/07 07:56:28;;;;;;;34.80;20.27;;;;;;;14.40;73.66;101092.22;4967782;28;105792;-63
2021/10/07 07:58:53;;;;;;;31.27;20.05;;;;;;;14.37;73.66;101097.94;4968840;28;106058;-64
2021/10/07 08:01:20;;;;;;;31.92;19.60;;;;;;;14.36;74.13;101102.44;4967362;28;106223;-63
2021/10/07 08:03:45;;;;;;;33.28;20.40;;;;;;;14.34;73.69;101103.66;4968102;28;106007;-62
2021/10/07 08:06:11;;;;;;;29.65;19.05;;;;;;;14.32;73.66;101105.66;4968296;28;106626;-61
2021/10/07 08:08:36;;;;;;;28.77;20.70;;;;;;;14.31;73.75;101099.47;4967754;28;105993;-62
2021/10/07 08:11:01;;;;;;;34.58;19.42;;;;;;;14.40;74.13;101097.59;4968215;28;106200;-63
2021/10/07 08:13:27;;;;;;;34.67;21.55;;;;;;;14.57;74.20;101098.38;4967822;28;106893;-63
2021/10/07 08:15:52;;;;;;;27.45;19.63;;;;;;;14.76;74.43;101102.47;4967863;28;106274;-62
2021/10/07 08:18:19;;;;;;;31.90;19.08;;;;;;;14.97;74.26;101101.03;4967177;28;106047;-63
2021/10/07 08:20:44;;;;;;;32.35;18.92;;;;;;;15.22;74.33;101102.53;4968229;28;106208;-64
2021/10/07 08:23:12;;;;;;;27.27;19.10;;;;;;;15.47;73.61;101110.41;4967348;28;106666;-62
2021/10/07 08:25:39;;;;;;;26.75;17.35;;;;;;;15.76;73.49;101113.34;4967630;28;106046;-63
2021/10/07 08:28:05;;;;;;;25.08;16.70;;;;;;;16.00;73.18;101115.00;4968744;28;106101;-62
2021/10/07 08:30:30;;;;;;;31.60;18.27;;;;;;;16.21;72.61;101119.66;4967924;28;106308;-62
2021/10/07 08:32:56;;;;;;;24.83;17.00;;;;;;;16.41;72.47;101117.25;4967896;28;106198;-61
2021/10/07 08:35:21;;;;;;;29.90;17.23;;;;;;;16.58;72.08;101118.72;4967837;28;106134;-61
2021/10/07 08:37:47;;;;;;;30.08;17.27;;;;;;;16.68;71.93;101117.63;4968748;28;106038;-62
2021/10/07 08:40:15;;;;;;;26.58;17.77;;;;;;;16.81;71.40;101114.22;4967758;28;106333;-62
2021/10/07 08:42:41;;;;;;;28.48;18.13;;;;;;;16.98;71.06;101112.19;4967509;28;106114;-61
2021/10/07 08:45:09;;;;;;;28.92;17.65;;;;;;;17.19;70.93;101114.06;4967430;28;105863;-62
2021/10/07 08:47:39;;;;;;;28.85;17.63;;;;;;;17.39;70.28;101115.09;4968368;28;105905;-62
2021/10/07 08:50:09;;;;;;;29.17;17.55;;;;;;;17.58;69.66;101115.47;4967693;28;105895;-64
2021/10/07 08:52:35;;;;;;;23.45;15.32;;;;;;;17.76;69.21;101115.00;4967221;28;105819;-62
2021/10/07 08:55:01;;;;;;;25.80;16.48;;;;;;;17.97;68.72;101108.75;4967558;28;105834;-62
2021/10/07 08:57:27;;;;;;;30.77;16.42;;;;;;;18.31;68.74;101111.66;4967442;28;106034;-63
2021/10/07 08:59:53;;;;;;;24.83;16.17;;;;;;;18.74;68.23;101114.13;4967520;28;106288;-62
2021/10/07 09:02:44;;;;;;;25.23;16.83;;;;;;;19.46;68.28;101109.16;4965398;28;107880;-62
2021/10/07 09:05:16;;;;;;;28.52;18.10;;;;;;;20.01;66.58;101113.53;4965916;28;106030;-62
2021/10/07 09:08:01;;;;;;;22.45;17.23;;;;;;;20.05;64.87;101122.88;4968072;28;106102;-63
2021/10/07 09:10:41;;;;;;;24.45;16.85;;;;;;;20.01;64.52;101116.22;4967874;28;105747;-63
2021/10/07 09:13:08;;;;;;;24.55;17.85;;;;;;;19.99;63.91;101123.75;4966893;28;106474;-63
2021/10/07 09:15:33;;;;;;;23.92;17.30;;;;;;;20.02;63.58;101123.31;4967047;28;105999;-63
2021/10/07 09:18:05;;;;;;;27.08;18.15;;;;;;;20.07;63.09;101128.94;4967695;28;105846;-62
2021/10/07 09:20:45;;;;;;;24.60;17.63;;;;;;;20.20;63.13;101131.59;4966966;28;106108;-62
2021/10/07 09:23:23;;;;;;;26.73;18.75;;;;;;;20.23;61.90;101127.63;4966677;28;106199;-62
2021/10/07 09:25:56;;;;;;;26.55;18.55;;;;;;;19.99;61.63;101138.06;4967239;28;105937;-62
2021/10/07 09:28:22;;;;;;;23.65;17.90;;;;;;;19.64;60.93;101132.03;4967923;28;105845;-64
2021/10/07 09:31:00;;;;;;;26.98;17.58;;;;;;;19.22;61.26;101127.63;4968300;28;106214;-63
2021/10/07 09:33:41;;;;;;;28.08;19.20;;;;;;;18.93;61.31;101131.47;4970721;28;105972;-63
2021/10/07 09:36:33;;;;;;;25.42;19.27;;;;;;;18.64;61.48;101140.69;4969989;28;106134;-63
2021/10/07 09:39:00;;;;;;;29.50;21.05;;;;;;;18.38;61.64;101139.50;4969819;28;106220;-64
2021/10/07 09:41:27;;;;;;;40.50;30.67;;;;;;;18.07;61.79;101138.06;4970421;28;106217;-63
2021/10/07 09:43:56;;;;;;;34.97;23.65;;;;;;;17.77;61.72;101144.44;4969908;28;106231;-62
2021/10/07 09:46:44;;;;;;;32.15;21.30;;;;;;;17.41;61.91;101141.84;4969324;28;106056;-62
2021/10/07 09:49:15;;;;;;;32.70;22.92;;;;;;;17.16;62.38;101152.97;4986098;28;106460;-64
2021/10/07 09:51:51;;;;;;;38.40;22.95;;;;;;;16.95;62.98;101158.31;4990107;28;105874;-64
2021/10/07 09:54:27;;;;;;;34.25;23.20;;;;;;;16.74;63.28;101151.81;4990103;28;106678;-64
2021/10/07 09:56:54;;;;;;;34.78;23.42;;;;;;;16.58;63.43;101161.75;4989978;28;105853;-64
2021/10/07 09:59:20;;;;;;;35.10;23.88;;;;;;;16.42;63.63;101164.66;4990834;28;106018;-63
2021/10/07 10:01:45;;;;;;;37.35;25.52;;;;;;;16.30;64.22;101164.25;4990201;28;106255;-63
2021/10/07 10:04:11;;;;;;;40.13;26.10;;;;;;;16.20;64.61;101161.03;4989939;28;106031;-63
2021/10/07 10:06:39;;;;;;;40.60;25.55;;;;;;;16.11;64.28;101167.50;4989816;28;106190;-63
2021/10/07 10:09:05;;;;;;;42.13;25.75;;;;;;;15.94;64.73;101173.03;4990818;28;105948;-63
2021/10/07 10:11:30;;;;;;;44.03;27.73;;;;;;;15.82;64.94;101172.59;4990010;28;106229;-63
2021/10/07 10:13:55;;;;;;;45.65;27.20;;;;;;;15.70;64.82;101171.31;4989617;28;106103;-64
2021/10/07 10:16:21;;;;;;;47.13;27.58;;;;;;;15.63;65.30;101167.69;4989889;28;106542;-63
2021/10/07 10:18:59;;;;;;;44.53;25.70;;;;;;;15.59;65.50;101175.28;4990396;28;105951;-62
2021/10/07 10:21:26;;;;;;;40.67;25.00;;;;;;;15.53;66.07;101174.16;4989450;28;106109;-61
2021/10/07 10:23:53;;;;;;;42.33;26.52;;;;;;;15.50;65.69;101166.44;4989177;28;106086;-61
2021/10/07 10:26:19;;;;;;;34.75;24.05;;;;;;;15.43;65.92;101164.66;4989462;28;106101;-63
2021/10/07 10:28:52;;;;;;;37.50;25.20;;;;;;;15.40;66.27;101171.22;4989867;28;106001;-62
2021/10/07 10:31:40;;;;;;;39.95;24.33;;;;;;;15.35;66.22;101166.38;4989762;28;105903;-61
2021/10/07 10:34:16;;;;;;;35.30;23.42;;;;;;;15.34;66.46;101171.94;4989149;28;107051;-61
2021/10/07 10:36:51;;;;;;;35.38;23.05;;;;;;;15.35;66.65;101184.31;4989093;28;106249;-63
2021/10/07 10:39:27;;;;;;;32.42;21.83;;;;;;;15.33;66.89;101176.44;4989995;28;106409;-62
2021/10/07 10:41:58;;;;;;;35.53;24.13;;;;;;;15.35;66.90;101170.91;4989361;28;106312;-63
2021/10/07 10:44:27;;;;;;;33.47;23.00;;;;;;;15.39;67.08;101166.84;4989020;28;106140;-64
2021/10/07 10:47:07;;;;;;;38.42;25.63;;;;;;;15.45;67.32;101176.88;4988876;28;105878;-63
2021/10/07 10:49:36;;;;;;;37.03;22.60;;;;;;;15.57;67.12;101170.09;4989356;28;106134;-62
2021/10/07 10:52:26;;;;;;;40.63;27.63;;;;;;;15.76;67.40;101175.16;4989113;28;106273;-62
2021/10/07 10:54:56;;;;;;;34.10;23.30;;;;;;;16.00;67.10;101169.59;4988612;28;106138;-63
2021/10/07 10:57:30;;;;;;;41.53;22.40;;;;;;;16.19;67.07;101175.47;4987075;28;107001;-62
2021/10/07 11:00:14;;;;;;;32.05;21.90;;;;;;;16.30;66.58;101190.31;4989147;28;106072;-63
2021/10/07 11:02:56;;;;;;;32.38;22.75;;;;;;;16.34;66.04;101191.63;4986977;28;106426;-62
2021/10/07 11:05:28;;;;;;;35.78;21.58;;;;;;;16.40;65.96;101180.97;4988260;28;106056;-61
2021/10/07 11:08:09;;;;;;;31.33;21.92;;;;;;;16.57;66.07;101181.59;4988641;28;106259;-61
2021/10/07 11:10:39;;;;;;;26.13;20.23;;;;;;;16.68;65.84;101182.19;4989221;28;105725;-61
2021/10/07 11:13:04;;;;;;;32.58;21.73;;;;;;;16.81;65.62;101193.09;4988280;28;106217;-62
2021/10/07 11:15:30;;;;;;;34.22;21.23;;;;;;;17.00;65.63;101185.50;4988427;28;106010;-61